createdAt,value
2018-08-03T00:00:30.900Z,0
2018-08-03T00:01:30.919Z,0
2018-08-03T00:02:31.183Z,0
2018-08-03T00:03:30.919Z,0
2018-08-03T00:04:30.924Z,0
2018-08-03T00:05:30.665Z,0
2018-08-03T00:06:31.188Z,0
2018-08-03T00:07:31.178Z,0
2018-08-03T00:08:30.933Z,0
2018-08-03T00:09:30.995Z,0
2018-08-03T00:10:31.201Z,0
2018-08-03T00:11:30.953Z,0
2018-08-03T00:12:30.976Z,0
2018-08-03T00:13:30.694Z,0
2018-08-03T00:14:30.981Z,0
2018-08-03T00:15:30.976Z,0
2018-08-03T00:16:31.252Z,0
2018-08-03T00:17:30.709Z,0
2018-08-03T00:18:31.248Z,0
2018-08-03T00:19:30.730Z,0
2018-08-03T00:20:30.976Z,0
2018-08-03T00:21:31.013Z,0
2018-08-03T00:22:30.471Z,0
2018-08-03T00:23:31.037Z,0
2018-08-03T00:24:30.997Z,0
2018-08-03T00:25:31.006Z,0
2018-08-03T00:26:31.311Z,0
2018-08-03T00:27:31.045Z,0
2018-08-03T00:28:31.028Z,0
2018-08-03T00:29:31.038Z,0
2018-08-03T00:30:30.758Z,0
2018-08-03T00:31:31.277Z,0
2018-08-03T00:32:30.540Z,0
2018-08-03T00:33:31.284Z,0
2018-08-03T00:34:30.790Z,0
2018-08-03T00:35:31.295Z,0
2018-08-03T00:36:31.310Z,0
2018-08-03T00:37:31.323Z,0
2018-08-03T00:38:30.536Z,0
2018-08-03T00:39:31.061Z,0
2018-08-03T00:40:31.321Z,0
2018-08-03T00:41:31.062Z,0
2018-08-03T00:42:31.340Z,0
2018-08-03T00:43:31.104Z,0
2018-08-03T00:44:30.806Z,0
2018-08-03T00:45:31.067Z,0
2018-08-03T00:46:30.922Z,0
2018-08-03T00:47:31.339Z,0
2018-08-03T00:48:31.103Z,0
2018-08-03T00:49:31.083Z,0
2018-08-03T00:50:31.073Z,0
2018-08-03T00:51:30.843Z,0
2018-08-03T00:52:31.089Z,0
2018-08-03T00:53:30.585Z,0
2018-08-03T00:54:31.111Z,0
2018-08-03T00:55:31.117Z,0
2018-08-03T00:56:31.129Z,0
2018-08-03T00:57:31.381Z,0
2018-08-03T00:58:30.866Z,0
2018-08-03T00:59:30.861Z,0
2018-08-03T01:00:31.119Z,0
2018-08-03T01:01:31.127Z,0
2018-08-03T01:02:31.386Z,0
2018-08-03T01:03:31.153Z,0
2018-08-03T01:04:30.885Z,0
2018-08-03T01:05:31.130Z,0
2018-08-03T01:06:30.881Z,0
2018-08-03T01:07:30.886Z,0
2018-08-03T01:08:31.395Z,0
2018-08-03T01:09:31.135Z,0
2018-08-03T01:10:31.406Z,0
2018-08-03T01:11:30.890Z,0
2018-08-03T01:12:30.892Z,0
2018-08-03T01:13:30.911Z,0
2018-08-03T01:14:30.654Z,0
2018-08-03T01:15:30.902Z,0
2018-08-03T01:16:31.169Z,0
2018-08-03T01:17:31.429Z,0
2018-08-03T01:18:30.919Z,0
2018-08-03T01:19:31.442Z,0
2018-08-03T01:20:30.919Z,0
2018-08-03T01:21:31.457Z,0
2018-08-03T01:22:31.184Z,0
2018-08-03T01:23:31.196Z,0
2018-08-03T01:24:30.693Z,0
2018-08-03T01:25:30.936Z,0
2018-08-03T01:26:30.963Z,0
2018-08-03T01:27:31.209Z,0
2018-08-03T01:28:31.202Z,0
2018-08-03T01:29:31.212Z,0
2018-08-03T01:30:30.976Z,0
2018-08-03T01:31:30.966Z,0
2018-08-03T01:32:31.229Z,0
2018-08-03T01:33:31.224Z,0
2018-08-03T01:34:31.494Z,0
2018-08-03T01:35:31.244Z,0
2018-08-03T01:36:30.980Z,0
2018-08-03T01:37:30.993Z,0
2018-08-03T01:38:31.246Z,0
2018-08-03T01:39:30.725Z,0
2018-08-03T01:40:31.001Z,0
2018-08-03T01:41:30.992Z,0
2018-08-03T01:42:31.271Z,0
2018-08-03T01:43:31.006Z,0
2018-08-03T01:44:31.528Z,0
2018-08-03T01:45:31.284Z,0
2018-08-03T01:46:31.040Z,0
2018-08-03T01:47:31.275Z,0
2018-08-03T01:48:31.283Z,0
2018-08-03T01:49:31.031Z,0
2018-08-03T01:50:31.312Z,0
2018-08-03T01:51:31.345Z,0
2018-08-03T01:52:31.325Z,0
2018-08-03T01:53:30.780Z,0
2018-08-03T01:54:31.314Z,0
2018-08-03T01:55:31.042Z,0
2018-08-03T01:56:31.285Z,0
2018-08-03T01:57:31.300Z,0
2018-08-03T01:58:31.568Z,0
2018-08-03T01:59:31.568Z,0
2018-08-03T02:00:31.096Z,0
2018-08-03T02:01:31.741Z,0
2018-08-03T02:02:31.595Z,0
2018-08-03T02:03:31.343Z,0
2018-08-03T02:04:31.093Z,0
2018-08-03T02:05:31.088Z,0
2018-08-03T02:06:31.084Z,0
2018-08-03T02:07:31.094Z,0
2018-08-03T02:08:31.364Z,0
2018-08-03T02:09:31.376Z,0
2018-08-03T02:10:31.100Z,0
2018-08-03T02:11:31.364Z,0
2018-08-03T02:12:31.378Z,0
2018-08-03T02:13:30.845Z,0
2018-08-03T02:14:30.855Z,0
2018-08-03T02:15:30.872Z,0
2018-08-03T02:16:31.126Z,0
2018-08-03T02:17:31.372Z,0
2018-08-03T02:18:31.126Z,0
2018-08-03T02:19:31.646Z,0
2018-08-03T02:20:31.381Z,0
2018-08-03T02:21:31.387Z,0
2018-08-03T02:22:31.386Z,0
2018-08-03T02:23:31.152Z,0
2018-08-03T02:24:31.383Z,0
2018-08-03T02:25:31.142Z,0
2018-08-03T02:26:31.419Z,0
2018-08-03T02:27:31.677Z,0
2018-08-03T02:28:31.408Z,0
2018-08-03T02:29:31.167Z,0
2018-08-03T02:30:30.899Z,0
2018-08-03T02:31:31.417Z,0
2018-08-03T02:32:31.736Z,0
2018-08-03T02:33:31.708Z,0
2018-08-03T02:34:31.427Z,0
2018-08-03T02:35:31.440Z,0
2018-08-03T02:36:31.189Z,0
2018-08-03T02:37:31.429Z,0
2018-08-03T02:38:31.431Z,0
2018-08-03T02:39:31.450Z,0
2018-08-03T02:40:31.535Z,0
2018-08-03T02:41:31.466Z,0
2018-08-03T02:42:31.469Z,0
2018-08-03T02:43:31.501Z,0
2018-08-03T02:44:31.747Z,0
2018-08-03T02:45:31.473Z,0
2018-08-03T02:46:31.494Z,0
2018-08-03T02:47:31.829Z,0
2018-08-03T02:48:31.738Z,0
2018-08-03T02:49:31.498Z,0
2018-08-03T02:50:31.742Z,0
2018-08-03T02:51:31.760Z,0
2018-08-03T02:52:31.489Z,0
2018-08-03T02:53:32.540Z,0
2018-08-03T02:54:31.484Z,0
2018-08-03T02:55:31.501Z,0
2018-08-03T02:56:31.754Z,0
2018-08-03T02:57:31.744Z,0
2018-08-03T02:58:31.237Z,0
2018-08-03T02:59:31.490Z,0
2018-08-03T03:00:31.495Z,0
2018-08-03T03:01:31.501Z,0
2018-08-03T03:02:31.311Z,0
2018-08-03T03:03:31.516Z,0
2018-08-03T03:04:31.502Z,0
2018-08-03T03:05:31.252Z,0
2018-08-03T03:06:31.522Z,0
2018-08-03T03:07:32.106Z,0
2018-08-03T03:08:31.772Z,0
2018-08-03T03:09:31.018Z,0
2018-08-03T03:10:31.265Z,0
2018-08-03T03:11:31.266Z,0
2018-08-03T03:12:31.536Z,0
2018-08-03T03:13:31.536Z,0
2018-08-03T03:14:31.029Z,0
2018-08-03T03:15:31.817Z,0
2018-08-03T03:16:31.544Z,0
2018-08-03T03:17:31.812Z,0
2018-08-03T03:18:31.550Z,0
2018-08-03T03:19:31.823Z,4
2018-08-03T03:20:31.574Z,4
2018-08-03T03:21:31.808Z,4
2018-08-03T03:22:31.297Z,0
2018-08-03T03:23:32.362Z,0
2018-08-03T03:24:31.565Z,4
2018-08-03T03:25:31.615Z,4
2018-08-03T03:26:31.564Z,4
2018-08-03T03:27:31.313Z,4
2018-08-03T03:28:32.387Z,4
2018-08-03T03:29:31.832Z,8
2018-08-03T03:30:31.592Z,8
2018-08-03T03:31:31.852Z,8
2018-08-03T03:32:31.614Z,12
2018-08-03T03:33:31.427Z,8
2018-08-03T03:34:31.595Z,12
2018-08-03T03:35:31.359Z,12
2018-08-03T03:36:31.869Z,20
2018-08-03T03:37:31.611Z,20
2018-08-03T03:38:31.901Z,24
2018-08-03T03:39:31.878Z,24
2018-08-03T03:40:31.601Z,32
2018-08-03T03:41:31.612Z,32
2018-08-03T03:42:31.364Z,40
2018-08-03T03:43:31.615Z,44
2018-08-03T03:44:31.357Z,52
2018-08-03T03:45:31.470Z,56
2018-08-03T03:46:31.368Z,64
2018-08-03T03:47:31.650Z,68
2018-08-03T03:48:31.392Z,80
2018-08-03T03:49:31.641Z,88
2018-08-03T03:50:31.385Z,100
2018-08-03T03:51:31.662Z,108
2018-08-03T03:52:31.904Z,124
2018-08-03T03:53:31.696Z,136
2018-08-03T03:54:31.662Z,148
2018-08-03T03:55:31.646Z,160
2018-08-03T03:56:31.922Z,176
2018-08-03T03:57:31.417Z,196
2018-08-03T03:58:31.932Z,208
2018-08-03T03:59:31.673Z,228
2018-08-03T04:00:31.169Z,244
2018-08-03T04:01:31.428Z,268
2018-08-03T04:02:31.947Z,288
2018-08-03T04:03:31.432Z,308
2018-08-03T04:04:31.426Z,336
2018-08-03T04:05:31.696Z,360
2018-08-03T04:06:31.192Z,384
2018-08-03T04:07:31.967Z,408
2018-08-03T04:08:31.692Z,432
2018-08-03T04:09:31.725Z,464
2018-08-03T04:10:31.754Z,492
2018-08-03T04:11:31.741Z,520
2018-08-03T04:12:31.919Z,560
2018-08-03T04:13:31.191Z,596
2018-08-03T04:14:31.479Z,620
2018-08-03T04:15:31.209Z,660
2018-08-03T04:16:31.467Z,696
2018-08-03T04:17:31.989Z,736
2018-08-03T04:18:31.469Z,776
2018-08-03T04:19:31.731Z,812
2018-08-03T04:20:31.474Z,856
2018-08-03T04:21:31.728Z,900
2018-08-03T04:22:31.221Z,944
2018-08-03T04:23:31.756Z,1016
2018-08-03T04:24:31.987Z,1036
2018-08-03T04:25:31.882Z,1084
2018-08-03T04:26:31.763Z,1136
2018-08-03T04:27:32.006Z,1192
2018-08-03T04:28:32.041Z,1268
2018-08-03T04:29:32.012Z,1340
2018-08-03T04:30:31.746Z,1404
2018-08-03T04:31:31.503Z,1468
2018-08-03T04:32:31.764Z,1536
2018-08-03T04:33:31.757Z,1612
2018-08-03T04:34:31.778Z,1692
2018-08-03T04:35:31.820Z,1776
2018-08-03T04:36:32.035Z,1860
2018-08-03T04:37:31.786Z,1936
2018-08-03T04:38:31.801Z,2024
2018-08-03T04:39:32.060Z,2108
2018-08-03T04:40:32.065Z,2200
2018-08-03T04:41:31.620Z,2292
2018-08-03T04:42:31.926Z,2380
2018-08-03T04:43:32.039Z,2464
2018-08-03T04:44:31.789Z,2508
2018-08-03T04:45:31.804Z,2720
2018-08-03T04:46:31.652Z,2816
2018-08-03T04:47:31.809Z,2912
2018-08-03T04:48:31.875Z,3008
2018-08-03T04:49:32.136Z,3100
2018-08-03T04:50:31.579Z,3196
2018-08-03T04:51:31.859Z,3288
2018-08-03T04:52:31.962Z,3400
2018-08-03T04:53:31.594Z,3504
2018-08-03T04:54:32.116Z,3600
2018-08-03T04:55:31.837Z,3708
2018-08-03T04:56:32.118Z,3800
2018-08-03T04:57:31.594Z,3892
2018-08-03T04:58:31.342Z,3996
2018-08-03T04:59:31.851Z,4096
2018-08-03T05:00:31.623Z,4208
2018-08-03T05:01:32.130Z,4320
2018-08-03T05:02:31.890Z,4428
2018-08-03T05:03:32.137Z,4548
2018-08-03T05:04:31.585Z,4652
2018-08-03T05:05:32.155Z,4740
2018-08-03T05:06:32.171Z,4784
2018-08-03T05:07:31.388Z,4756
2018-08-03T05:08:32.162Z,4708
2018-08-03T05:09:31.676Z,4748
2018-08-03T05:10:32.225Z,4856
2018-08-03T05:11:31.924Z,4988
2018-08-03T05:12:31.936Z,5164
2018-08-03T05:13:31.947Z,5288
2018-08-03T05:14:31.940Z,5448
2018-08-03T05:15:32.159Z,5572
2018-08-03T05:16:31.946Z,5772
2018-08-03T05:17:32.222Z,5920
2018-08-03T05:18:31.957Z,5884
2018-08-03T05:19:31.452Z,6168
2018-08-03T05:20:32.217Z,6300
2018-08-03T05:21:31.970Z,6432
2018-08-03T05:22:31.975Z,6552
2018-08-03T05:23:32.243Z,6640
2018-08-03T05:24:31.996Z,6760
2018-08-03T05:25:31.997Z,6864
2018-08-03T05:26:31.749Z,6968
2018-08-03T05:27:32.008Z,7076
2018-08-03T05:28:32.001Z,7180
2018-08-03T05:29:32.034Z,7280
2018-08-03T05:30:32.179Z,7416
2018-08-03T05:31:32.295Z,7596
2018-08-03T05:32:31.775Z,7740
2018-08-03T05:33:31.817Z,7876
2018-08-03T05:34:32.321Z,7992
2018-08-03T05:35:32.286Z,8076
2018-08-03T05:36:32.563Z,8140
2018-08-03T05:37:32.345Z,8208
2018-08-03T05:38:31.824Z,8252
2018-08-03T05:39:32.348Z,8324
2018-08-03T05:40:31.829Z,8448
2018-08-03T05:41:32.357Z,8524
2018-08-03T05:42:32.616Z,8544
2018-08-03T05:43:32.098Z,8596
2018-08-03T05:44:32.111Z,8684
2018-08-03T05:45:32.658Z,8812
2018-08-03T05:46:32.134Z,8880
2018-08-03T05:47:32.123Z,8960
2018-08-03T05:48:32.389Z,9104
2018-08-03T05:49:31.890Z,9196
2018-08-03T05:50:31.633Z,9316
2018-08-03T05:51:31.646Z,9424
2018-08-03T05:52:32.763Z,9456
2018-08-03T05:53:31.661Z,9548
2018-08-03T05:54:32.201Z,9612
2018-08-03T05:55:32.173Z,9676
2018-08-03T05:56:32.198Z,9720
2018-08-03T05:57:32.461Z,9804
2018-08-03T05:58:32.217Z,9884
2018-08-03T05:59:32.203Z,9996
2018-08-03T06:00:32.476Z,10072
2018-08-03T06:01:32.246Z,10112
2018-08-03T06:02:31.968Z,10260
2018-08-03T06:03:32.488Z,10404
2018-08-03T06:04:32.514Z,10424
2018-08-03T06:05:32.252Z,10568
2018-08-03T06:06:32.270Z,10720
2018-08-03T06:07:32.533Z,10776
2018-08-03T06:08:32.302Z,10852
2018-08-03T06:09:32.416Z,10912
2018-08-03T06:10:32.071Z,11040
2018-08-03T06:11:32.067Z,10676
2018-08-03T06:12:32.309Z,8196
2018-08-03T06:13:32.320Z,8900
2018-08-03T06:14:31.813Z,8668
2018-08-03T06:15:32.327Z,8964
2018-08-03T06:16:32.595Z,9324
2018-08-03T06:17:32.104Z,9580
2018-08-03T06:18:32.105Z,9840
2018-08-03T06:19:31.865Z,10052
2018-08-03T06:20:32.420Z,10220
2018-08-03T06:21:32.633Z,10396
2018-08-03T06:22:32.128Z,10532
2018-08-03T06:23:32.415Z,10676
2018-08-03T06:24:32.396Z,11704
2018-08-03T06:25:32.147Z,10756
2018-08-03T06:26:32.164Z,10840
2018-08-03T06:27:32.427Z,10948
2018-08-03T06:28:32.735Z,11000
2018-08-03T06:29:32.535Z,11036
2018-08-03T06:30:32.177Z,10984
2018-08-03T06:31:31.938Z,11152
2018-08-03T06:32:32.450Z,11220
2018-08-03T06:33:32.455Z,11312
2018-08-03T06:34:32.476Z,11412
2018-08-03T06:35:32.218Z,11552
2018-08-03T06:36:32.232Z,11628
2018-08-03T06:37:32.230Z,12376
2018-08-03T06:38:32.507Z,11716
2018-08-03T06:39:32.266Z,11876
2018-08-03T06:40:32.771Z,11996
2018-08-03T06:41:32.269Z,12056
2018-08-03T06:42:32.797Z,12028
2018-08-03T06:43:32.543Z,12136
2018-08-03T06:44:32.296Z,12232
2018-08-03T06:45:32.839Z,12348
2018-08-03T06:46:32.847Z,12408
2018-08-03T06:47:32.607Z,12408
2018-08-03T06:48:33.157Z,12408
2018-08-03T06:49:32.673Z,12496
2018-08-03T06:50:32.345Z,12500
2018-08-03T06:51:32.348Z,12500
2018-08-03T06:52:32.387Z,12444
2018-08-03T06:53:32.378Z,11192
2018-08-03T06:54:32.900Z,12488
2018-08-03T06:55:32.657Z,12576
2018-08-03T06:56:32.395Z,12664
2018-08-03T06:57:33.151Z,12708
2018-08-03T06:58:32.702Z,12748
2018-08-03T06:59:32.678Z,12704
2018-08-03T07:00:33.033Z,12732
2018-08-03T07:01:32.458Z,12780
2018-08-03T07:02:32.730Z,12976
2018-08-03T07:03:32.976Z,12904
2018-08-03T07:04:32.993Z,12960
2018-08-03T07:05:32.792Z,12908
2018-08-03T07:06:32.751Z,12968
2018-08-03T07:07:32.230Z,13024
2018-08-03T07:08:32.986Z,13016
2018-08-03T07:09:32.506Z,13052
2018-08-03T07:10:32.515Z,13044
2018-08-03T07:11:32.538Z,13092
2018-08-03T07:12:32.780Z,13036
2018-08-03T07:13:32.792Z,13064
2018-08-03T07:14:33.148Z,13108
2018-08-03T07:15:32.810Z,13088
2018-08-03T07:16:32.581Z,13040
2018-08-03T07:17:32.850Z,13092
2018-08-03T07:18:32.626Z,13104
2018-08-03T07:19:32.611Z,13008
2018-08-03T07:20:33.332Z,12932
2018-08-03T07:21:32.876Z,12940
2018-08-03T07:22:32.914Z,12596
2018-08-03T07:23:32.652Z,12372
2018-08-03T07:24:32.400Z,12120
2018-08-03T07:25:32.716Z,11776
2018-08-03T07:26:32.684Z,11460
2018-08-03T07:27:32.959Z,11284
2018-08-03T07:28:33.227Z,11172
2018-08-03T07:29:32.432Z,11268
2018-08-03T07:30:32.963Z,11500
2018-08-03T07:31:33.305Z,11784
2018-08-03T07:32:32.722Z,11996
2018-08-03T07:33:32.479Z,11952
2018-08-03T07:34:33.278Z,12016
2018-08-03T07:35:33.272Z,12152
2018-08-03T07:36:32.763Z,12368
2018-08-03T07:37:32.764Z,12528
2018-08-03T07:38:32.765Z,12580
2018-08-03T07:39:33.079Z,12564
2018-08-03T07:40:32.784Z,12576
2018-08-03T07:41:33.337Z,12616
2018-08-03T07:42:33.068Z,12672
2018-08-03T07:43:33.237Z,12728
2018-08-03T07:44:32.885Z,12880
2018-08-03T07:45:32.830Z,12804
2018-08-03T07:46:33.085Z,12860
2018-08-03T07:47:33.375Z,12840
2018-08-03T07:48:32.864Z,12820
2018-08-03T07:49:32.957Z,12772
2018-08-03T07:50:33.418Z,12780
2018-08-03T07:51:32.926Z,12664
2018-08-03T07:52:33.661Z,12616
2018-08-03T07:53:33.418Z,12620
2018-08-03T07:54:32.912Z,12404
2018-08-03T07:55:33.199Z,12168
2018-08-03T07:56:32.935Z,12156
2018-08-03T07:57:32.692Z,12336
2018-08-03T07:58:33.212Z,12500
2018-08-03T07:59:32.982Z,12636
2018-08-03T08:00:33.235Z,12700
2018-08-03T08:01:33.496Z,12700
2018-08-03T08:02:33.571Z,12700
2018-08-03T08:03:32.992Z,12672
2018-08-03T08:04:33.010Z,12660
2018-08-03T08:05:33.282Z,12612
2018-08-03T08:06:33.553Z,12584
2018-08-03T08:07:33.299Z,12556
2018-08-03T08:08:32.781Z,12560
2018-08-03T08:09:33.681Z,12516
2018-08-03T08:10:33.325Z,12472
2018-08-03T08:11:33.085Z,12368
2018-08-03T08:12:33.340Z,12356
2018-08-03T08:13:33.106Z,12332
2018-08-03T08:14:33.099Z,12276
2018-08-03T08:15:32.922Z,12220
2018-08-03T08:16:33.377Z,12160
2018-08-03T08:17:33.137Z,12128
2018-08-03T08:18:33.697Z,12084
2018-08-03T08:19:32.903Z,12036
2018-08-03T08:20:32.911Z,12008
2018-08-03T08:21:33.450Z,11972
2018-08-03T08:22:33.446Z,11848
2018-08-03T08:23:33.513Z,11768
2018-08-03T08:24:33.238Z,11720
2018-08-03T08:25:33.747Z,11660
2018-08-03T08:26:33.766Z,11620
2018-08-03T08:27:33.257Z,11572
2018-08-03T08:28:32.996Z,11512
2018-08-03T08:29:34.052Z,11404
2018-08-03T08:30:33.805Z,11356
2018-08-03T08:31:34.001Z,11336
2018-08-03T08:32:33.552Z,11264
2018-08-03T08:33:33.555Z,11264
2018-08-03T08:34:33.567Z,11240
2018-08-03T08:35:33.593Z,11192
2018-08-03T08:36:33.341Z,11132
2018-08-03T08:37:33.083Z,11100
2018-08-03T08:38:33.869Z,11032
2018-08-03T08:39:33.614Z,11052
2018-08-03T08:40:33.930Z,10996
2018-08-03T08:41:33.671Z,10976
2018-08-03T08:42:33.424Z,10916
2018-08-03T08:43:33.946Z,10856
2018-08-03T08:44:33.414Z,10796
2018-08-03T08:45:33.438Z,10820
2018-08-03T08:46:33.711Z,10744
2018-08-03T08:47:33.739Z,10668
2018-08-03T08:48:33.745Z,10640
2018-08-03T08:49:33.744Z,10604
2018-08-03T08:50:33.994Z,10572
2018-08-03T08:51:33.787Z,10556
2018-08-03T08:52:34.048Z,10528
2018-08-03T08:53:34.028Z,10484
2018-08-03T08:54:34.062Z,10444
2018-08-03T08:55:33.815Z,10444
2018-08-03T08:56:33.833Z,10416
2018-08-03T08:57:34.106Z,10384
2018-08-03T08:58:33.565Z,10344
2018-08-03T08:59:34.212Z,10340
2018-08-03T09:00:33.852Z,10332
2018-08-03T09:01:34.126Z,10300
2018-08-03T09:02:33.862Z,10256
2018-08-03T09:03:34.155Z,10204
2018-08-03T09:04:34.242Z,10204
2018-08-03T09:05:34.155Z,10184
2018-08-03T09:06:33.638Z,10140
2018-08-03T09:07:34.190Z,10088
2018-08-03T09:08:33.963Z,10092
2018-08-03T09:09:33.974Z,10072
2018-08-03T09:10:34.030Z,10040
2018-08-03T09:11:33.699Z,10052
2018-08-03T09:12:34.191Z,10036
2018-08-03T09:13:33.986Z,10000
2018-08-03T09:14:33.973Z,10016
2018-08-03T09:15:33.981Z,10052
2018-08-03T09:16:34.220Z,10044
2018-08-03T09:17:34.250Z,10024
2018-08-03T09:18:34.196Z,10028
2018-08-03T09:19:34.002Z,10040
2018-08-03T09:20:34.026Z,10032
2018-08-03T09:21:34.020Z,10036
2018-08-03T09:22:34.029Z,10048
2018-08-03T09:23:33.794Z,10036
2018-08-03T09:24:34.054Z,10060
2018-08-03T09:25:34.291Z,10060
2018-08-03T09:26:33.784Z,10060
2018-08-03T09:27:34.045Z,10036
2018-08-03T09:28:34.310Z,10036
2018-08-03T09:29:34.065Z,10044
2018-08-03T09:30:34.062Z,10064
2018-08-03T09:31:34.074Z,10092
2018-08-03T09:32:34.092Z,10104
2018-08-03T09:33:33.873Z,10136
2018-08-03T09:34:34.116Z,10128
2018-08-03T09:35:33.889Z,10132
2018-08-03T09:36:34.614Z,10100
2018-08-03T09:37:33.857Z,10088
2018-08-03T09:38:33.892Z,10088
2018-08-03T09:39:34.103Z,10128
2018-08-03T09:40:34.378Z,10092
2018-08-03T09:41:34.167Z,10104
2018-08-03T09:42:34.147Z,10080
2018-08-03T09:43:34.400Z,10016
2018-08-03T09:44:34.164Z,10032
2018-08-03T09:45:33.923Z,10012
2018-08-03T09:46:33.665Z,9908
2018-08-03T09:47:34.441Z,9860
2018-08-03T09:48:34.432Z,9916
2018-08-03T09:49:34.191Z,9864
2018-08-03T09:50:34.463Z,9836
2018-08-03T09:51:34.212Z,9860
2018-08-03T09:52:33.976Z,9784
2018-08-03T09:53:34.263Z,9768
2018-08-03T09:54:34.119Z,9704
2018-08-03T09:55:34.495Z,9668
2018-08-03T09:56:34.312Z,9616
2018-08-03T09:57:34.496Z,9568
2018-08-03T09:58:34.266Z,9488
2018-08-03T09:59:34.509Z,9428
2018-08-03T10:00:34.008Z,9384
2018-08-03T10:01:34.266Z,9348
2018-08-03T10:02:34.024Z,9236
2018-08-03T10:03:34.276Z,9204
2018-08-03T10:04:34.035Z,9220
2018-08-03T10:05:34.567Z,9196
2018-08-03T10:06:34.069Z,9176
2018-08-03T10:07:34.408Z,9076
2018-08-03T10:08:34.311Z,9040
2018-08-03T10:09:34.051Z,8980
2018-08-03T10:10:34.567Z,8976
2018-08-03T10:11:34.341Z,8908
2018-08-03T10:12:34.079Z,8856
2018-08-03T10:13:34.597Z,8852
2018-08-03T10:14:34.350Z,8804
2018-08-03T10:15:34.808Z,8744
2018-08-03T10:16:34.367Z,8728
2018-08-03T10:17:34.626Z,8668
2018-08-03T10:18:33.880Z,8604
2018-08-03T10:19:34.124Z,8576
2018-08-03T10:20:34.400Z,8560
2018-08-03T10:21:34.667Z,8476
2018-08-03T10:22:34.211Z,8480
2018-08-03T10:23:34.411Z,8460
2018-08-03T10:24:35.009Z,8416
2018-08-03T10:25:34.175Z,8412
2018-08-03T10:26:34.430Z,8360
2018-08-03T10:27:34.467Z,8344
2018-08-03T10:28:34.687Z,8308
2018-08-03T10:29:34.780Z,8292
2018-08-03T10:30:34.715Z,8276
2018-08-03T10:31:34.713Z,8284
2018-08-03T10:32:34.466Z,8276
2018-08-03T10:33:34.217Z,8248
2018-08-03T10:34:34.780Z,8180
2018-08-03T10:35:34.477Z,8156
2018-08-03T10:36:34.478Z,8144
2018-08-03T10:37:34.762Z,8124
2018-08-03T10:38:34.247Z,8124
2018-08-03T10:39:34.494Z,8144
2018-08-03T10:40:34.001Z,8108
2018-08-03T10:41:34.797Z,8084
2018-08-03T10:42:34.280Z,8088
2018-08-03T10:43:34.802Z,8080
2018-08-03T10:44:34.539Z,8064
2018-08-03T10:45:34.550Z,8076
2018-08-03T10:46:34.547Z,8172
2018-08-03T10:47:34.807Z,8200
2018-08-03T10:48:34.904Z,8212
2018-08-03T10:49:34.837Z,8196
2018-08-03T10:50:34.831Z,8204
2018-08-03T10:51:34.454Z,8204
2018-08-03T10:52:34.586Z,8184
2018-08-03T10:53:34.846Z,8168
2018-08-03T10:54:34.861Z,8240
2018-08-03T10:55:34.635Z,8316
2018-08-03T10:56:34.618Z,8392
2018-08-03T10:57:34.868Z,8476
2018-08-03T10:58:34.383Z,8572
2018-08-03T10:59:34.901Z,8576
2018-08-03T11:00:34.907Z,8396
2018-08-03T11:01:35.086Z,8200
2018-08-03T11:02:34.477Z,8132
2018-08-03T11:03:34.725Z,8064
2018-08-03T11:04:34.718Z,8084
2018-08-03T11:05:34.659Z,8028
2018-08-03T11:06:34.940Z,7988
2018-08-03T11:07:34.692Z,8028
2018-08-03T11:08:34.437Z,8008
2018-08-03T11:09:34.689Z,8040
2018-08-03T11:10:34.984Z,8120
2018-08-03T11:11:34.475Z,8188
2018-08-03T11:12:34.985Z,8108
2018-08-03T11:13:34.608Z,8060
2018-08-03T11:14:35.008Z,8088
2018-08-03T11:15:34.237Z,8168
2018-08-03T11:16:34.751Z,8176
2018-08-03T11:17:34.754Z,8148
2018-08-03T11:18:34.537Z,8080
2018-08-03T11:19:34.830Z,8036
2018-08-03T11:20:34.803Z,7972
2018-08-03T11:21:35.037Z,7872
2018-08-03T11:22:35.046Z,7824
2018-08-03T11:23:35.065Z,7840
2018-08-03T11:24:35.084Z,7832
2018-08-03T11:25:34.804Z,7828
2018-08-03T11:26:35.086Z,7796
2018-08-03T11:27:34.823Z,7796
2018-08-03T11:28:34.840Z,7764
2018-08-03T11:29:34.885Z,7756
2018-08-03T11:30:35.111Z,7708
2018-08-03T11:31:34.846Z,7704
2018-08-03T11:32:34.870Z,7712
2018-08-03T11:33:34.893Z,7736
2018-08-03T11:34:34.878Z,7600
2018-08-03T11:35:35.145Z,7540
2018-08-03T11:36:34.723Z,7476
2018-08-03T11:37:34.900Z,7460
2018-08-03T11:38:35.160Z,7428
2018-08-03T11:39:34.906Z,7396
2018-08-03T11:40:35.229Z,7408
2018-08-03T11:41:34.980Z,7360
2018-08-03T11:42:34.934Z,7348
2018-08-03T11:43:34.979Z,7388
2018-08-03T11:44:34.447Z,7356
2018-08-03T11:45:34.690Z,7264
2018-08-03T11:46:34.958Z,7240
2018-08-03T11:47:34.467Z,7300
2018-08-03T11:48:34.865Z,7348
2018-08-03T11:49:35.314Z,7348
2018-08-03T11:50:34.735Z,7328
2018-08-03T11:51:35.262Z,7404
2018-08-03T11:52:34.749Z,7384
2018-08-03T11:53:35.025Z,7456
2018-08-03T11:54:34.768Z,7416
2018-08-03T11:55:35.061Z,7488
2018-08-03T11:56:34.541Z,7496
2018-08-03T11:57:35.042Z,7524
2018-08-03T11:58:35.313Z,7516
2018-08-03T11:59:35.325Z,7488
2018-08-03T12:00:35.068Z,7456
2018-08-03T12:01:35.108Z,7268
2018-08-03T12:02:35.083Z,7404
2018-08-03T12:03:35.076Z,7428
2018-08-03T12:04:35.416Z,7496
2018-08-03T12:05:35.357Z,7492
2018-08-03T12:06:34.686Z,7496
2018-08-03T12:07:34.847Z,7464
2018-08-03T12:08:35.107Z,7444
2018-08-03T12:09:35.385Z,7484
2018-08-03T12:10:35.392Z,7448
2018-08-03T12:11:35.155Z,7256
2018-08-03T12:12:35.483Z,7252
2018-08-03T12:13:35.161Z,7284
2018-08-03T12:14:35.444Z,7308
2018-08-03T12:15:35.208Z,5804
2018-08-03T12:16:35.182Z,7192
2018-08-03T12:17:35.450Z,6972
2018-08-03T12:18:35.226Z,7264
2018-08-03T12:19:35.185Z,7368
2018-08-03T12:20:35.459Z,7396
2018-08-03T12:21:34.946Z,7428
2018-08-03T12:22:35.217Z,7472
2018-08-03T12:23:35.727Z,7532
2018-08-03T12:24:35.512Z,7636
2018-08-03T12:25:35.225Z,7768
2018-08-03T12:26:35.256Z,7888
2018-08-03T12:27:34.985Z,7952
2018-08-03T12:28:35.540Z,8012
2018-08-03T12:29:35.512Z,8096
2018-08-03T12:30:35.531Z,8160
2018-08-03T12:31:35.756Z,8168
2018-08-03T12:32:34.770Z,8224
2018-08-03T12:33:35.550Z,8292
2018-08-03T12:34:35.315Z,8308
2018-08-03T12:35:35.311Z,8308
2018-08-03T12:36:35.605Z,8232
2018-08-03T12:37:35.315Z,8152
2018-08-03T12:38:35.090Z,8100
2018-08-03T12:39:35.342Z,8052
2018-08-03T12:40:35.085Z,8024
2018-08-03T12:41:35.361Z,8020
2018-08-03T12:42:35.360Z,8040
2018-08-03T12:43:35.621Z,8024
2018-08-03T12:44:35.370Z,8040
2018-08-03T12:45:41.538Z,8072
2018-08-03T12:46:35.639Z,8048
2018-08-03T12:47:35.406Z,7980
2018-08-03T12:48:35.199Z,7572
2018-08-03T12:49:34.921Z,8052
2018-08-03T12:50:35.544Z,8152
2018-08-03T12:51:35.840Z,8164
2018-08-03T12:52:35.975Z,8032
2018-08-03T12:53:35.686Z,7068
2018-08-03T12:54:35.193Z,6564
2018-08-03T12:55:35.447Z,6668
2018-08-03T12:56:35.613Z,7688
2018-08-03T12:57:35.719Z,6688
2018-08-03T12:58:35.735Z,7384
2018-08-03T12:59:35.767Z,7960
2018-08-03T13:00:35.499Z,7964
2018-08-03T13:01:35.490Z,8020
2018-08-03T13:02:35.704Z,8040
2018-08-03T13:03:35.515Z,8064
2018-08-03T13:04:35.523Z,8012
2018-08-03T13:05:35.808Z,7892
2018-08-03T13:06:35.848Z,7852
2018-08-03T13:07:35.489Z,7816
2018-08-03T13:08:35.641Z,7720
2018-08-03T13:09:35.304Z,7672
2018-08-03T13:10:35.816Z,7672
2018-08-03T13:11:35.631Z,7688
2018-08-03T13:12:35.335Z,7428
2018-08-03T13:13:35.589Z,6884
2018-08-03T13:14:35.613Z,7416
2018-08-03T13:15:35.894Z,7564
2018-08-03T13:16:35.371Z,7480
2018-08-03T13:17:35.105Z,7476
2018-08-03T13:18:35.636Z,7492
2018-08-03T13:19:35.890Z,7436
2018-08-03T13:20:35.691Z,7400
2018-08-03T13:21:35.645Z,7328
2018-08-03T13:22:35.654Z,7304
2018-08-03T13:23:35.655Z,7332
2018-08-03T13:24:35.681Z,7248
2018-08-03T13:25:35.674Z,6256
2018-08-03T13:26:35.426Z,6296
2018-08-03T13:27:35.758Z,6376
2018-08-03T13:28:35.946Z,6456
2018-08-03T13:29:35.858Z,6556
2018-08-03T13:30:35.719Z,7896
2018-08-03T13:31:35.976Z,7964
2018-08-03T13:32:35.736Z,8032
2018-08-03T13:33:36.032Z,8024
2018-08-03T13:34:36.005Z,8004